sensor_id;sensor_type;location;lat;lon;timestamp;P1;durP1;ratioP1;P2;durP2;ratioP2
10096;SDS011;5087;42.662;23.466;2023-08-06T00:00:40;0.00;;;0.00;;
10096;SDS011;5087;42.662;23.466;2023-08-06T00:03:07;0.00;;;0.00;;
10096;SDS011;5087;42.662;23.466;2023-08-06T00:05:34;0.00;;;0.00;;
10096;SDS011;5087;42.662;23.466;2023-08-06T00:08:01;0.00;;;0.00;;
10096;SDS011;5087;42.662;23.466;2023-08-06T00:10:29;0.00;;;0.00;;
10096;SDS011;5087;42.662;23.466;2023-08-06T00:12:57;0.00;;;0.00;;
10096;SDS011;5087;42.662;23.466;2023-08-06T00:15:25;0.00;;;0.00;;
10096;SDS011;5087;42.662;23.466;2023-08-06T00:17:52;0.00;;;0.00;;
10096;SDS011;5087;42.662;23.466;2023-08-06T00:20:19;0.00;;;0.00;;
10096;SDS011;5087;42.662;23.466;2023-08-06T00:22:47;0.00;;;0.00;;
10096;SDS011;5087;42.662;23.466;2023-08-06T00:25:14;0.00;;;0.00;;
10096;SDS011;5087;42.662;23.466;2023-08-06T00:27:41;0.00;;;0.00;;
10096;SDS011;5087;42.662;23.466;2023-08-06T00:30:10;0.00;;;0.00;;
10096;SDS011;5087;42.662;23.466;2023-08-06T00:32:37;0.00;;;0.00;;
10096;SDS011;5087;42.662;23.466;2023-08-06T00:35:05;0.00;;;0.00;;
10096;SDS011;5087;42.662;23.466;2023-08-06T00:37:33;0.00;;;0.00;;
10096;SDS011;5087;42.662;23.466;2023-08-06T00:40:00;0.00;;;0.00;;
10096;SDS011;5087;42.662;23.466;2023-08-06T00:42:38;0.20;;;0.20;;
10096;SDS011;5087;42.662;23.466;2023-08-06T00:45:05;0.00;;;0.00;;
10096;SDS011;5087;42.662;23.466;2023-08-06T00:47:34;0.00;;;0.00;;
10096;SDS011;5087;42.662;23.466;2023-08-06T00:50:04;0.00;;;0.00;;
10096;SDS011;5087;42.662;23.466;2023-08-06T00:52:33;0.00;;;0.00;;
10096;SDS011;5087;42.662;23.466;2023-08-06T00:55:00;0.00;;;0.00;;
10096;SDS011;5087;42.662;23.466;2023-08-06T00:57:28;0.00;;;0.00;;
10096;SDS011;5087;42.662;23.466;2023-08-06T00:59:59;0.00;;;0.00;;
10096;SDS011;5087;42.662;23.466;2023-08-06T01:02:26;0.00;;;0.00;;
10096;SDS011;5087;42.662;23.466;2023-08-06T01:04:55;0.00;;;0.00;;
10096;SDS011;5087;42.662;23.466;2023-08-06T01:07:29;0.00;;;0.00;;
10096;SDS011;5087;42.662;23.466;2023-08-06T01:10:15;0.00;;;0.00;;
10096;SDS011;5087;42.662;23.466;2023-08-06T01:12:55;0.00;;;0.00;;
10096;SDS011;5087;42.662;23.466;2023-08-06T01:15:32;0.00;;;0.00;;
10096;SDS011;5087;42.662;23.466;2023-08-06T01:18:08;0.00;;;0.00;;
10096;SDS011;5087;42.662;23.466;2023-08-06T01:20:37;0.00;;;0.00;;
10096;SDS011;5087;42.662;23.466;2023-08-06T01:23:05;0.00;;;0.00;;
10096;SDS011;5087;42.662;23.466;2023-08-06T01:25:36;0.00;;;0.00;;
10096;SDS011;5087;42.662;23.466;2023-08-06T01:28:11;0.00;;;0.00;;
10096;SDS011;5087;42.662;23.466;2023-08-06T01:30:50;0.00;;;0.00;;
10096;SDS011;5087;42.662;23.466;2023-08-06T01:33:21;0.00;;;0.00;;
10096;SDS011;5087;42.662;23.466;2023-08-06T01:35:51;0.00;;;0.00;;
10096;SDS011;5087;42.662;23.466;2023-08-06T01:38:23;0.07;;;0.07;;
10096;SDS011;5087;42.662;23.466;2023-08-06T01:40:53;0.00;;;0.00;;
10096;SDS011;5087;42.662;23.466;2023-08-06T01:43:21;0.00;;;0.00;;
10096;SDS011;5087;42.662;23.466;2023-08-06T01:45:56;0.00;;;0.00;;
10096;SDS011;5087;42.662;23.466;2023-08-06T01:48:24;0.00;;;0.00;;
10096;SDS011;5087;42.662;23.466;2023-08-06T01:50:58;0.00;;;0.00;;
10096;SDS011;5087;42.662;23.466;2023-08-06T01:53:25;0.50;;;0.50;;
10096;SDS011;5087;42.662;23.466;2023-08-06T01:55:53;0.00;;;0.00;;
10096;SDS011;5087;42.662;23.466;2023-08-06T01:58:21;0.00;;;0.00;;
10096;SDS011;5087;42.662;23.466;2023-08-06T02:00:48;0.00;;;0.00;;
10096;SDS011;5087;42.662;23.466;2023-08-06T02:03:16;0.00;;;0.00;;
10096;SDS011;5087;42.662;23.466;2023-08-06T02:05:43;0.00;;;0.00;;
10096;SDS011;5087;42.662;23.466;2023-08-06T02:08:12;0.00;;;0.00;;
10096;SDS011;5087;42.662;23.466;2023-08-06T02:10:39;0.00;;;0.00;;
10096;SDS011;5087;42.662;23.466;2023-08-06T02:13:07;0.00;;;0.00;;
10096;SDS011;5087;42.662;23.466;2023-08-06T02:15:34;0.00;;;0.00;;
10096;SDS011;5087;42.662;23.466;2023-08-06T02:18:01;0.00;;;0.00;;
10096;SDS011;5087;42.662;23.466;2023-08-06T02:20:29;0.00;;;0.00;;
10096;SDS011;5087;42.662;23.466;2023-08-06T02:22:56;0.00;;;0.00;;
10096;SDS011;5087;42.662;23.466;2023-08-06T02:25:25;0.00;;;0.00;;
10096;SDS011;5087;42.662;23.466;2023-08-06T02:27:52;0.00;;;0.00;;
10096;SDS011;5087;42.662;23.466;2023-08-06T02:30:20;0.00;;;0.00;;
10096;SDS011;5087;42.662;23.466;2023-08-06T02:32:47;0.00;;;0.00;;
10096;SDS011;5087;42.662;23.466;2023-08-06T02:35:14;0.00;;;0.00;;
10096;SDS011;5087;42.662;23.466;2023-08-06T02:37:41;0.00;;;0.00;;
10096;SDS011;5087;42.662;23.466;2023-08-06T02:40:09;0.00;;;0.00;;
10096;SDS011;5087;42.662;23.466;2023-08-06T02:42:38;0.00;;;0.00;;
10096;SDS011;5087;42.662;23.466;2023-08-06T02:45:06;0.00;;;0.00;;
10096;SDS011;5087;42.662;23.466;2023-08-06T02:47:34;0.00;;;0.00;;
10096;SDS011;5087;42.662;23.466;2023-08-06T02:50:01;0.00;;;0.00;;
10096;SDS011;5087;42.662;23.466;2023-08-06T02:52:29;0.00;;;0.00;;
10096;SDS011;5087;42.662;23.466;2023-08-06T02:54:57;0.00;;;0.00;;
10096;SDS011;5087;42.662;23.466;2023-08-06T02:57:27;0.00;;;0.00;;
10096;SDS011;5087;42.662;23.466;2023-08-06T02:59:56;0.00;;;0.00;;
10096;SDS011;5087;42.662;23.466;2023-08-06T03:02:24;0.00;;;0.00;;
10096;SDS011;5087;42.662;23.466;2023-08-06T03:04:58;0.00;;;0.00;;
10096;SDS011;5087;42.662;23.466;2023-08-06T03:07:30;0.30;;;0.10;;
10096;SDS011;5087;42.662;23.466;2023-08-06T03:10:07;0.00;;;0.00;;
10096;SDS011;5087;42.662;23.466;2023-08-06T03:12:34;0.00;;;0.00;;
10096;SDS011;5087;42.662;23.466;2023-08-06T03:15:13;0.00;;;0.00;;
10096;SDS011;5087;42.662;23.466;2023-08-06T03:17:43;0.00;;;0.00;;
10096;SDS011;5087;42.662;23.466;2023-08-06T03:20:11;0.00;;;0.00;;
10096;SDS011;5087;42.662;23.466;2023-08-06T03:22:39;0.00;;;0.00;;
10096;SDS011;5087;42.662;23.466;2023-08-06T03:25:07;0.00;;;0.00;;
10096;SDS011;5087;42.662;23.466;2023-08-06T03:27:35;0.00;;;0.00;;
10096;SDS011;5087;42.662;23.466;2023-08-06T03:30:03;0.00;;;0.00;;
10096;SDS011;5087;42.662;23.466;2023-08-06T03:32:33;0.33;;;0.33;;
10096;SDS011;5087;42.662;23.466;2023-08-06T03:35:00;0.00;;;0.00;;
10096;SDS011;5087;42.662;23.466;2023-08-06T03:37:29;0.00;;;0.00;;
10096;SDS011;5087;42.662;23.466;2023-08-06T03:39:56;0.00;;;0.00;;
10096;SDS011;5087;42.662;23.466;2023-08-06T03:42:23;0.00;;;0.00;;
10096;SDS011;5087;42.662;23.466;2023-08-06T03:44:50;0.00;;;0.00;;
10096;SDS011;5087;42.662;23.466;2023-08-06T03:47:18;0.00;;;0.00;;
10096;SDS011;5087;42.662;23.466;2023-08-06T03:49:49;0.00;;;0.00;;
10096;SDS011;5087;42.662;23.466;2023-08-06T03:52:17;0.00;;;0.00;;
10096;SDS011;5087;42.662;23.466;2023-08-06T03:54:44;0.00;;;0.00;;
10096;SDS011;5087;42.662;23.466;2023-08-06T03:57:11;0.00;;;0.00;;
10096;SDS011;5087;42.662;23.466;2023-08-06T03:59:38;0.00;;;0.00;;
10096;SDS011;5087;42.662;23.466;2023-08-06T04:02:06;0.00;;;0.00;;
10096;SDS011;5087;42.662;23.466;2023-08-06T04:04:33;0.00;;;0.00;;
10096;SDS011;5087;42.662;23.466;2023-08-06T04:07:02;0.00;;;0.00;;
10096;SDS011;5087;42.662;23.466;2023-08-06T04:09:29;0.00;;;0.00;;
10096;SDS011;5087;42.662;23.466;2023-08-06T04:11:56;0.00;;;0.00;;
10096;SDS011;5087;42.662;23.466;2023-08-06T04:14:26;0.00;;;0.00;;
10096;SDS011;5087;42.662;23.466;2023-08-06T04:16:57;0.00;;;0.00;;
10096;SDS011;5087;42.662;23.466;2023-08-06T04:19:24;0.00;;;0.00;;
10096;SDS011;5087;42.662;23.466;2023-08-06T04:21:56;0.50;;;0.50;;
10096;SDS011;5087;42.662;23.466;2023-08-06T04:24:25;0.00;;;0.00;;
10096;SDS011;5087;42.662;23.466;2023-08-06T04:26:54;0.00;;;0.00;;
10096;SDS011;5087;42.662;23.466;2023-08-06T04:29:22;0.00;;;0.00;;
10096;SDS011;5087;42.662;23.466;2023-08-06T04:31:49;0.00;;;0.00;;
10096;SDS011;5087;42.662;23.466;2023-08-06T04:34:17;0.00;;;0.00;;
10096;SDS011;5087;42.662;23.466;2023-08-06T04:36:45;0.00;;;0.00;;
10096;SDS011;5087;42.662;23.466;2023-08-06T04:39:12;0.00;;;0.00;;
10096;SDS011;5087;42.662;23.466;2023-08-06T04:41:41;0.00;;;0.00;;
10096;SDS011;5087;42.662;23.466;2023-08-06T04:44:08;0.00;;;0.00;;
10096;SDS011;5087;42.662;23.466;2023-08-06T04:46:35;0.00;;;0.00;;
10096;SDS011;5087;42.662;23.466;2023-08-06T04:49:02;0.00;;;0.00;;
10096;SDS011;5087;42.662;23.466;2023-08-06T04:51:33;0.00;;;0.00;;
10096;SDS011;5087;42.662;23.466;2023-08-06T04:54:00;0.00;;;0.00;;
10096;SDS011;5087;42.662;23.466;2023-08-06T04:56:28;0.00;;;0.00;;
10096;SDS011;5087;42.662;23.466;2023-08-06T04:59:00;0.10;;;0.10;;
10096;SDS011;5087;42.662;23.466;2023-08-06T05:01:27;0.00;;;0.00;;
10096;SDS011;5087;42.662;23.466;2023-08-06T05:03:55;0.00;;;0.00;;
10096;SDS011;5087;42.662;23.466;2023-08-06T05:06:25;0.00;;;0.00;;
10096;SDS011;5087;42.662;23.466;2023-08-06T05:08:53;0.00;;;0.00;;
10096;SDS011;5087;42.662;23.466;2023-08-06T05:11:20;0.00;;;0.00;;
10096;SDS011;5087;42.662;23.466;2023-08-06T05:13:47;0.00;;;0.00;;
10096;SDS011;5087;42.662;23.466;2023-08-06T05:16:16;0.00;;;0.00;;
10096;SDS011;5087;42.662;23.466;2023-08-06T05:18:53;0.40;;;0.20;;
10096;SDS011;5087;42.662;23.466;2023-08-06T05:21:21;0.00;;;0.00;;
10096;SDS011;5087;42.662;23.466;2023-08-06T05:23:50;0.00;;;0.00;;
10096;SDS011;5087;42.662;23.466;2023-08-06T05:26:18;0.00;;;0.00;;
10096;SDS011;5087;42.662;23.466;2023-08-06T05:28:46;0.00;;;0.00;;
10096;SDS011;5087;42.662;23.466;2023-08-06T05:31:13;0.00;;;0.00;;
10096;SDS011;5087;42.662;23.466;2023-08-06T05:33:42;0.00;;;0.00;;
10096;SDS011;5087;42.662;23.466;2023-08-06T05:36:09;0.00;;;0.00;;
10096;SDS011;5087;42.662;23.466;2023-08-06T05:38:37;0.00;;;0.00;;
10096;SDS011;5087;42.662;23.466;2023-08-06T05:41:04;0.00;;;0.00;;
10096;SDS011;5087;42.662;23.466;2023-08-06T05:43:33;0.00;;;0.00;;
10096;SDS011;5087;42.662;23.466;2023-08-06T05:46:01;0.00;;;0.00;;
10096;SDS011;5087;42.662;23.466;2023-08-06T05:48:29;0.00;;;0.00;;
10096;SDS011;5087;42.662;23.466;2023-08-06T05:50:59;0.00;;;0.00;;
10096;SDS011;5087;42.662;23.466;2023-08-06T05:53:26;0.00;;;0.00;;
10096;SDS011;5087;42.662;23.466;2023-08-06T05:55:54;0.00;;;0.00;;
10096;SDS011;5087;42.662;23.466;2023-08-06T05:58:23;0.00;;;0.00;;
10096;SDS011;5087;42.662;23.466;2023-08-06T06:00:51;0.00;;;0.00;;
10096;SDS011;5087;42.662;23.466;2023-08-06T06:03:19;0.00;;;0.00;;
10096;SDS011;5087;42.662;23.466;2023-08-06T06:05:46;0.00;;;0.00;;
10096;SDS011;5087;42.662;23.466;2023-08-06T06:08:15;0.00;;;0.00;;
10096;SDS011;5087;42.662;23.466;2023-08-06T06:10:43;0.00;;;0.00;;
10096;SDS011;5087;42.662;23.466;2023-08-06T06:13:10;0.00;;;0.00;;
10096;SDS011;5087;42.662;23.466;2023-08-06T06:15:37;0.00;;;0.00;;
10096;SDS011;5087;42.662;23.466;2023-08-06T06:18:04;0.00;;;0.00;;
10096;SDS011;5087;42.662;23.466;2023-08-06T06:20:32;0.00;;;0.00;;
10096;SDS011;5087;42.662;23.466;2023-08-06T06:22:59;0.47;;;0.13;;
10096;SDS011;5087;42.662;23.466;2023-08-06T06:25:30;0.00;;;0.00;;
10096;SDS011;5087;42.662;23.466;2023-08-06T06:27:58;0.00;;;0.00;;
10096;SDS011;5087;42.662;23.466;2023-08-06T06:30:25;0.00;;;0.00;;
10096;SDS011;5087;42.662;23.466;2023-08-06T06:32:52;0.10;;;0.10;;
10096;SDS011;5087;42.662;23.466;2023-08-06T06:35:20;0.10;;;0.10;;
10096;SDS011;5087;42.662;23.466;2023-08-06T06:37:47;0.40;;;0.40;;
10096;SDS011;5087;42.662;23.466;2023-08-06T06:40:14;0.63;;;0.63;;
10096;SDS011;5087;42.662;23.466;2023-08-06T06:42:43;0.30;;;0.30;;
10096;SDS011;5087;42.662;23.466;2023-08-06T06:45:12;0.20;;;0.20;;
10096;SDS011;5087;42.662;23.466;2023-08-06T06:47:39;0.20;;;0.20;;
10096;SDS011;5087;42.662;23.466;2023-08-06T06:50:06;0.40;;;0.40;;
10096;SDS011;5087;42.662;23.466;2023-08-06T06:52:34;0.50;;;0.50;;
10096;SDS011;5087;42.662;23.466;2023-08-06T06:55:02;0.60;;;0.60;;
10096;SDS011;5087;42.662;23.466;2023-08-06T06:57:29;0.77;;;0.77;;
10096;SDS011;5087;42.662;23.466;2023-08-06T06:59:58;0.93;;;0.93;;
10096;SDS011;5087;42.662;23.466;2023-08-06T07:02:26;1.97;;;1.97;;
10096;SDS011;5087;42.662;23.466;2023-08-06T07:04:54;3.37;;;3.37;;
10096;SDS011;5087;42.662;23.466;2023-08-06T07:07:23;3.20;;;3.20;;
10096;SDS011;5087;42.662;23.466;2023-08-06T07:09:51;3.40;;;3.40;;
10096;SDS011;5087;42.662;23.466;2023-08-06T07:12:18;3.57;;;3.57;;
10096;SDS011;5087;42.662;23.466;2023-08-06T07:14:58;5.30;;;5.20;;
10096;SDS011;5087;42.662;23.466;2023-08-06T07:17:26;5.03;;;4.93;;
10096;SDS011;5087;42.662;23.466;2023-08-06T07:19:53;9.20;;;8.97;;
10096;SDS011;5087;42.662;23.466;2023-08-06T07:22:20;7.83;;;7.63;;
10096;SDS011;5087;42.662;23.466;2023-08-06T07:24:47;7.47;;;7.27;;
10096;SDS011;5087;42.662;23.466;2023-08-06T07:27:15;10.87;;;10.57;;
10096;SDS011;5087;42.662;23.466;2023-08-06T07:29:42;13.83;;;13.43;;
10096;SDS011;5087;42.662;23.466;2023-08-06T07:32:11;11.47;;;11.17;;
10096;SDS011;5087;42.662;23.466;2023-08-06T07:34:38;7.87;;;7.67;;
10096;SDS011;5087;42.662;23.466;2023-08-06T07:37:06;6.53;;;6.40;;
10096;SDS011;5087;42.662;23.466;2023-08-06T07:39:33;8.13;;;7.93;;
10096;SDS011;5087;42.662;23.466;2023-08-06T07:42:01;6.87;;;6.70;;
10096;SDS011;5087;42.662;23.466;2023-08-06T07:44:31;6.77;;;6.60;;
10096;SDS011;5087;42.662;23.466;2023-08-06T07:46:58;7.17;;;6.97;;
10096;SDS011;5087;42.662;23.466;2023-08-06T07:49:26;8.80;;;8.60;;
10096;SDS011;5087;42.662;23.466;2023-08-06T07:51:54;7.67;;;7.47;;
10096;SDS011;5087;42.662;23.466;2023-08-06T07:54:22;6.13;;;6.03;;
10096;SDS011;5087;42.662;23.466;2023-08-06T07:56:50;4.47;;;4.37;;
10096;SDS011;5087;42.662;23.466;2023-08-06T07:59:18;3.57;;;3.57;;
10096;SDS011;5087;42.662;23.466;2023-08-06T08:01:46;2.67;;;2.67;;
10096;SDS011;5087;42.662;23.466;2023-08-06T08:04:13;2.73;;;2.73;;
10096;SDS011;5087;42.662;23.466;2023-08-06T08:06:42;2.27;;;2.27;;
10096;SDS011;5087;42.662;23.466;2023-08-06T08:09:09;2.00;;;2.00;;
10096;SDS011;5087;42.662;23.466;2023-08-06T08:11:38;1.80;;;1.80;;
10096;SDS011;5087;42.662;23.466;2023-08-06T08:14:06;1.80;;;1.80;;
10096;SDS011;5087;42.662;23.466;2023-08-06T08:16:33;1.80;;;1.80;;
10096;SDS011;5087;42.662;23.466;2023-08-06T08:19:00;1.70;;;1.70;;
10096;SDS011;5087;42.662;23.466;2023-08-06T08:21:29;1.70;;;1.70;;
10096;SDS011;5087;42.662;23.466;2023-08-06T08:23:58;1.70;;;1.70;;
10096;SDS011;5087;42.662;23.466;2023-08-06T08:26:26;1.80;;;1.80;;
10096;SDS011;5087;42.662;23.466;2023-08-06T08:28:54;1.93;;;1.93;;
10096;SDS011;5087;42.662;23.466;2023-08-06T08:31:22;1.70;;;1.70;;
10096;SDS011;5087;42.662;23.466;2023-08-06T08:33:49;1.70;;;1.70;;
10096;SDS011;5087;42.662;23.466;2023-08-06T08:36:17;1.57;;;1.57;;
10096;SDS011;5087;42.662;23.466;2023-08-06T08:38:44;1.40;;;1.40;;
10096;SDS011;5087;42.662;23.466;2023-08-06T08:41:12;1.60;;;1.60;;
10096;SDS011;5087;42.662;23.466;2023-08-06T08:43:40;1.40;;;1.40;;
10096;SDS011;5087;42.662;23.466;2023-08-06T08:46:09;1.50;;;1.50;;
10096;SDS011;5087;42.662;23.466;2023-08-06T08:48:38;1.30;;;1.30;;
10096;SDS011;5087;42.662;23.466;2023-08-06T08:51:06;1.37;;;1.37;;
10096;SDS011;5087;42.662;23.466;2023-08-06T08:53:35;1.30;;;1.30;;
10096;SDS011;5087;42.662;23.466;2023-08-06T08:56:11;1.40;;;1.40;;
10096;SDS011;5087;42.662;23.466;2023-08-06T08:58:41;1.60;;;1.60;;
10096;SDS011;5087;42.662;23.466;2023-08-06T09:01:08;1.60;;;1.60;;
10096;SDS011;5087;42.662;23.466;2023-08-06T09:03:36;1.30;;;1.30;;
10096;SDS011;5087;42.662;23.466;2023-08-06T09:06:04;1.40;;;1.40;;
10096;SDS011;5087;42.662;23.466;2023-08-06T09:08:33;1.40;;;1.40;;
10096;SDS011;5087;42.662;23.466;2023-08-06T09:11:04;1.50;;;1.50;;
10096;SDS011;5087;42.662;23.466;2023-08-06T09:13:39;1.40;;;1.40;;
10096;SDS011;5087;42.662;23.466;2023-08-06T09:16:07;1.10;;;1.10;;
10096;SDS011;5087;42.662;23.466;2023-08-06T09:18:35;1.20;;;1.20;;
10096;SDS011;5087;42.662;23.466;2023-08-06T09:21:06;1.10;;;1.10;;
10096;SDS011;5087;42.662;23.466;2023-08-06T09:23:40;1.03;;;1.03;;
10096;SDS011;5087;42.662;23.466;2023-08-06T09:26:07;1.00;;;1.00;;
10096;SDS011;5087;42.662;23.466;2023-08-06T09:28:40;0.80;;;0.80;;
10096;SDS011;5087;42.662;23.466;2023-08-06T09:31:08;0.40;;;0.40;;
10096;SDS011;5087;42.662;23.466;2023-08-06T09:33:37;0.40;;;0.40;;
10096;SDS011;5087;42.662;23.466;2023-08-06T09:36:10;0.30;;;0.30;;
10096;SDS011;5087;42.662;23.466;2023-08-06T09:38:38;0.47;;;0.47;;
10096;SDS011;5087;42.662;23.466;2023-08-06T09:41:12;0.30;;;0.30;;
10096;SDS011;5087;42.662;23.466;2023-08-06T09:43:56;0.30;;;0.30;;
10096;SDS011;5087;42.662;23.466;2023-08-06T09:46:30;0.20;;;0.20;;
10096;SDS011;5087;42.662;23.466;2023-08-06T09:49:02;0.20;;;0.20;;
10096;SDS011;5087;42.662;23.466;2023-08-06T09:51:33;0.20;;;0.20;;
10096;SDS011;5087;42.662;23.466;2023-08-06T09:54:01;0.20;;;0.20;;
10096;SDS011;5087;42.662;23.466;2023-08-06T09:56:30;0.20;;;0.20;;
10096;SDS011;5087;42.662;23.466;2023-08-06T09:59:07;0.30;;;0.30;;
10096;SDS011;5087;42.662;23.466;2023-08-06T10:01:38;0.20;;;0.20;;
10096;SDS011;5087;42.662;23.466;2023-08-06T10:04:06;0.20;;;0.20;;
10096;SDS011;5087;42.662;23.466;2023-08-06T10:06:36;0.20;;;0.20;;
10096;SDS011;5087;42.662;23.466;2023-08-06T10:09:04;0.10;;;0.10;;
10096;SDS011;5087;42.662;23.466;2023-08-06T10:11:32;0.10;;;0.10;;
10096;SDS011;5087;42.662;23.466;2023-08-06T10:14:01;0.20;;;0.20;;
10096;SDS011;5087;42.662;23.466;2023-08-06T10:16:37;0.10;;;0.10;;
10096;SDS011;5087;42.662;23.466;2023-08-06T10:19:15;0.10;;;0.10;;
10096;SDS011;5087;42.662;23.466;2023-08-06T10:27:30;0.10;;;0.10;;
10096;SDS011;5087;42.662;23.466;2023-08-06T10:30:26;0.10;;;0.10;;
10096;SDS011;5087;42.662;23.466;2023-08-06T10:32:56;0.10;;;0.10;;
10096;SDS011;5087;42.662;23.466;2023-08-06T10:35:28;0.10;;;0.10;;
10096;SDS011;5087;42.662;23.466;2023-08-06T10:38:10;0.10;;;0.10;;
10096;SDS011;5087;42.662;23.466;2023-08-06T10:40:39;0.20;;;0.20;;
10096;SDS011;5087;42.662;23.466;2023-08-06T10:43:11;0.10;;;0.10;;
10096;SDS011;5087;42.662;23.466;2023-08-06T10:46:09;0.10;;;0.10;;
10096;SDS011;5087;42.662;23.466;2023-08-06T10:48:37;0.20;;;0.20;;
10096;SDS011;5087;42.662;23.466;2023-08-06T10:51:10;0.20;;;0.20;;
10096;SDS011;5087;42.662;23.466;2023-08-06T10:53:41;0.20;;;0.20;;
10096;SDS011;5087;42.662;23.466;2023-08-06T10:56:12;0.20;;;0.20;;
10096;SDS011;5087;42.662;23.466;2023-08-06T10:58:41;0.30;;;0.30;;
10096;SDS011;5087;42.662;23.466;2023-08-06T11:01:10;0.20;;;0.20;;
10096;SDS011;5087;42.662;23.466;2023-08-06T11:03:38;0.20;;;0.20;;
10096;SDS011;5087;42.662;23.466;2023-08-06T11:06:09;0.30;;;0.30;;
10096;SDS011;5087;42.662;23.466;2023-08-06T11:08:38;0.27;;;0.27;;
10096;SDS011;5087;42.662;23.466;2023-08-06T11:11:11;0.20;;;0.20;;
10096;SDS011;5087;42.662;23.466;2023-08-06T11:13:39;0.20;;;0.20;;
10096;SDS011;5087;42.662;23.466;2023-08-06T11:16:06;0.20;;;0.20;;
10096;SDS011;5087;42.662;23.466;2023-08-06T11:18:37;0.20;;;0.20;;
10096;SDS011;5087;42.662;23.466;2023-08-06T11:21:04;0.20;;;0.20;;
10096;SDS011;5087;42.662;23.466;2023-08-06T11:23:33;0.20;;;0.20;;
10096;SDS011;5087;42.662;23.466;2023-08-06T11:26:04;0.20;;;0.20;;
10096;SDS011;5087;42.662;23.466;2023-08-06T11:28:31;0.20;;;0.20;;
10096;SDS011;5087;42.662;23.466;2023-08-06T11:30:59;0.20;;;0.20;;
10096;SDS011;5087;42.662;23.466;2023-08-06T11:33:29;0.20;;;0.20;;
10096;SDS011;5087;42.662;23.466;2023-08-06T11:36:01;0.20;;;0.20;;
10096;SDS011;5087;42.662;23.466;2023-08-06T11:38:30;0.20;;;0.20;;
10096;SDS011;5087;42.662;23.466;2023-08-06T11:40:59;0.20;;;0.20;;
10096;SDS011;5087;42.662;23.466;2023-08-06T11:43:29;0.20;;;0.20;;
10096;SDS011;5087;42.662;23.466;2023-08-06T11:46:02;0.30;;;0.30;;
10096;SDS011;5087;42.662;23.466;2023-08-06T11:48:30;0.10;;;0.10;;
10096;SDS011;5087;42.662;23.466;2023-08-06T11:51:18;0.10;;;0.10;;
10096;SDS011;5087;42.662;23.466;2023-08-06T11:53:49;0.10;;;0.10;;
10096;SDS011;5087;42.662;23.466;2023-08-06T11:56:17;0.13;;;0.13;;
10096;SDS011;5087;42.662;23.466;2023-08-06T11:58:44;0.20;;;0.20;;
10096;SDS011;5087;42.662;23.466;2023-08-06T12:01:11;0.20;;;0.20;;
10096;SDS011;5087;42.662;23.466;2023-08-06T12:03:41;0.20;;;0.20;;
10096;SDS011;5087;42.662;23.466;2023-08-06T12:06:08;0.20;;;0.20;;
10096;SDS011;5087;42.662;23.466;2023-08-06T12:08:37;0.30;;;0.30;;
10096;SDS011;5087;42.662;23.466;2023-08-06T12:11:05;0.20;;;0.20;;
10096;SDS011;5087;42.662;23.466;2023-08-06T12:13:35;0.30;;;0.30;;
10096;SDS011;5087;42.662;23.466;2023-08-06T12:16:02;0.30;;;0.30;;
10096;SDS011;5087;42.662;23.466;2023-08-06T12:18:33;0.23;;;0.23;;
10096;SDS011;5087;42.662;23.466;2023-08-06T12:21:00;0.40;;;0.40;;
10096;SDS011;5087;42.662;23.466;2023-08-06T12:23:31;0.20;;;0.20;;
10096;SDS011;5087;42.662;23.466;2023-08-06T12:26:04;0.30;;;0.30;;
10096;SDS011;5087;42.662;23.466;2023-08-06T12:28:35;0.20;;;0.20;;
10096;SDS011;5087;42.662;23.466;2023-08-06T12:31:02;0.40;;;0.40;;
10096;SDS011;5087;42.662;23.466;2023-08-06T12:33:36;0.50;;;0.50;;
10096;SDS011;5087;42.662;23.466;2023-08-06T12:36:04;0.10;;;0.10;;
10096;SDS011;5087;42.662;23.466;2023-08-06T12:38:35;0.10;;;0.10;;
10096;SDS011;5087;42.662;23.466;2023-08-06T12:41:02;0.17;;;0.17;;
10096;SDS011;5087;42.662;23.466;2023-08-06T12:43:31;0.10;;;0.10;;
10096;SDS011;5087;42.662;23.466;2023-08-06T12:45:59;0.10;;;0.10;;
10096;SDS011;5087;42.662;23.466;2023-08-06T12:48:27;0.10;;;0.10;;
10096;SDS011;5087;42.662;23.466;2023-08-06T12:50:54;0.10;;;0.10;;
10096;SDS011;5087;42.662;23.466;2023-08-06T12:53:27;0.13;;;0.13;;
10096;SDS011;5087;42.662;23.466;2023-08-06T12:55:55;0.10;;;0.10;;
10096;SDS011;5087;42.662;23.466;2023-08-06T12:58:22;0.10;;;0.10;;
10096;SDS011;5087;42.662;23.466;2023-08-06T13:00:54;0.10;;;0.10;;
10096;SDS011;5087;42.662;23.466;2023-08-06T13:03:22;0.30;;;0.30;;
10096;SDS011;5087;42.662;23.466;2023-08-06T13:05:53;0.10;;;0.10;;
10096;SDS011;5087;42.662;23.466;2023-08-06T13:08:21;0.13;;;0.13;;
10096;SDS011;5087;42.662;23.466;2023-08-06T13:10:48;0.10;;;0.10;;
10096;SDS011;5087;42.662;23.466;2023-08-06T13:13:16;0.10;;;0.10;;
10096;SDS011;5087;42.662;23.466;2023-08-06T13:15:46;0.10;;;0.10;;
10096;SDS011;5087;42.662;23.466;2023-08-06T13:18:15;0.20;;;0.20;;
10096;SDS011;5087;42.662;23.466;2023-08-06T13:20:42;0.20;;;0.20;;
10096;SDS011;5087;42.662;23.466;2023-08-06T13:23:14;0.10;;;0.10;;
10096;SDS011;5087;42.662;23.466;2023-08-06T13:25:42;0.10;;;0.10;;
10096;SDS011;5087;42.662;23.466;2023-08-06T13:28:11;0.13;;;0.13;;
10096;SDS011;5087;42.662;23.466;2023-08-06T13:30:39;0.10;;;0.10;;
10096;SDS011;5087;42.662;23.466;2023-08-06T13:33:07;0.20;;;0.20;;
10096;SDS011;5087;42.662;23.466;2023-08-06T13:35:51;0.10;;;0.10;;
10096;SDS011;5087;42.662;23.466;2023-08-06T13:38:18;0.20;;;0.20;;
10096;SDS011;5087;42.662;23.466;2023-08-06T13:40:47;0.50;;;0.50;;
10096;SDS011;5087;42.662;23.466;2023-08-06T13:43:15;0.43;;;0.43;;
10096;SDS011;5087;42.662;23.466;2023-08-06T13:45:44;0.10;;;0.10;;
10096;SDS011;5087;42.662;23.466;2023-08-06T13:48:15;0.10;;;0.10;;
10096;SDS011;5087;42.662;23.466;2023-08-06T13:50:52;0.10;;;0.10;;
10096;SDS011;5087;42.662;23.466;2023-08-06T13:53:25;0.10;;;0.10;;
10096;SDS011;5087;42.662;23.466;2023-08-06T13:55:59;0.10;;;0.10;;
10096;SDS011;5087;42.662;23.466;2023-08-06T13:58:27;0.10;;;0.10;;
10096;SDS011;5087;42.662;23.466;2023-08-06T14:00:55;0.13;;;0.13;;
10096;SDS011;5087;42.662;23.466;2023-08-06T14:03:26;0.10;;;0.10;;
10096;SDS011;5087;42.662;23.466;2023-08-06T14:05:55;0.33;;;0.33;;
10096;SDS011;5087;42.662;23.466;2023-08-06T14:08:23;0.20;;;0.20;;
10096;SDS011;5087;42.662;23.466;2023-08-06T14:10:51;0.10;;;0.10;;
10096;SDS011;5087;42.662;23.466;2023-08-06T14:13:21;0.10;;;0.10;;
10096;SDS011;5087;42.662;23.466;2023-08-06T14:15:48;0.57;;;0.50;;
10096;SDS011;5087;42.662;23.466;2023-08-06T14:18:16;0.20;;;0.20;;
10096;SDS011;5087;42.662;23.466;2023-08-06T14:20:44;0.63;;;0.63;;
10096;SDS011;5087;42.662;23.466;2023-08-06T14:23:12;0.10;;;0.10;;
10096;SDS011;5087;42.662;23.466;2023-08-06T14:25:40;0.10;;;0.10;;
10096;SDS011;5087;42.662;23.466;2023-08-06T14:28:07;0.20;;;0.20;;
10096;SDS011;5087;42.662;23.466;2023-08-06T14:30:34;0.10;;;0.10;;
10096;SDS011;5087;42.662;23.466;2023-08-06T14:33:03;0.10;;;0.10;;
10096;SDS011;5087;42.662;23.466;2023-08-06T14:35:30;0.23;;;0.23;;
10096;SDS011;5087;42.662;23.466;2023-08-06T14:37:57;0.20;;;0.20;;
10096;SDS011;5087;42.662;23.466;2023-08-06T14:40:26;0.20;;;0.20;;
10096;SDS011;5087;42.662;23.466;2023-08-06T14:42:58;0.10;;;0.10;;
10096;SDS011;5087;42.662;23.466;2023-08-06T14:45:26;0.10;;;0.10;;
10096;SDS011;5087;42.662;23.466;2023-08-06T14:47:53;0.10;;;0.10;;
10096;SDS011;5087;42.662;23.466;2023-08-06T14:50:20;0.10;;;0.10;;
10096;SDS011;5087;42.662;23.466;2023-08-06T14:52:48;0.10;;;0.10;;
10096;SDS011;5087;42.662;23.466;2023-08-06T14:55:17;0.10;;;0.10;;
10096;SDS011;5087;42.662;23.466;2023-08-06T14:57:53;0.10;;;0.10;;
10096;SDS011;5087;42.662;23.466;2023-08-06T15:00:21;0.10;;;0.10;;
10096;SDS011;5087;42.662;23.466;2023-08-06T15:02:48;0.10;;;0.10;;
10096;SDS011;5087;42.662;23.466;2023-08-06T15:05:24;0.10;;;0.10;;